KLM6473 EHAM-EDDM
Flight info
| Callsign | KLM6473 |
|---|---|
| Flight time | N/A |
| Altitude | 35000 |
| Route | EDUPO Z739 MISGO DCT DOJOH DCT DODEN/N0447F330 DCT TABUM DCT BOMBI T104 HAREM/N0413F270 T104 ROKIL ROKIL1A |
| Aircraft | A21N/M-SDE2E3FGHIRWXY/LB1 |
Departure
| Time | 2026-04-18 11:40 |
|---|---|
| Airport | Amsterdam Airport Schiphol (EHAM) |
Arrival
| Time | N/A |
|---|---|
| Airport | Munich Airport (EDDM) |
| Time | Latitude | Longitude | Altitude | Speed | Heading |
|---|---|---|---|---|---|
| 2026-04-18 11:13 | 52.30793 | 4.77294 | 13 ft | 0 kts | 182° |
| 2026-04-18 11:33 | 52.30800 | 4.77294 | 14 ft | 4 kts | 180° |
| 2026-04-18 11:33 | 52.30825 | 4.77288 | 16 ft | 4 kts | 153° |
| 2026-04-18 11:33 | 52.30842 | 4.77261 | 14 ft | 4 kts | 106° |
| 2026-04-18 11:34 | 52.30844 | 4.77246 | 13 ft | 1 kts | 94° |
| 2026-04-18 11:37 | 52.30844 | 4.77247 | 13 ft | 1 kts | 94° |
| 2026-04-18 11:37 | 52.30843 | 4.77277 | 14 ft | 4 kts | 94° |
| 2026-04-18 11:37 | 52.30840 | 4.77344 | 14 ft | 7 kts | 94° |
| 2026-04-18 11:38 | 52.30828 | 4.77441 | 16 ft | 10 kts | 131° |
| 2026-04-18 11:38 | 52.30756 | 4.77465 | 15 ft | 12 kts | 182° |
| 2026-04-18 11:38 | 52.30668 | 4.77467 | 17 ft | 14 kts | 161° |
| 2026-04-18 11:38 | 52.30571 | 4.77541 | 20 ft | 17 kts | 150° |
| 2026-04-18 11:39 | 52.30471 | 4.77625 | 23 ft | 17 kts | 164° |
| 2026-04-18 11:39 | 52.30396 | 4.77593 | 22 ft | 7 kts | 236° |
| 2026-04-18 11:39 | 52.30384 | 4.77562 | 22 ft | 2 kts | 237° |
| 2026-04-18 11:39 | 52.30345 | 4.77463 | 21 ft | 36 kts | 238° |
| 2026-04-18 11:40 | 52.30086 | 4.76790 | 24 ft | 101 kts | 238° |
| 2026-04-18 11:40 | 52.29611 | 4.75547 | 23 ft | 153 kts | 239° |
| 2026-04-18 11:40 | 52.29019 | 4.74053 | 389 ft | 161 kts | 238° |
| 2026-04-18 11:40 | 52.28347 | 4.72523 | 1018 ft | 164 kts | 236° |
| 2026-04-18 11:41 | 52.27678 | 4.70999 | 1668 ft | 167 kts | 240° |
| 2026-04-18 11:41 | 52.27102 | 4.69256 | 2225 ft | 183 kts | 239° |
| 2026-04-18 11:41 | 52.26094 | 4.67869 | 2817 ft | 203 kts | 209° |
| 2026-04-18 11:41 | 52.24635 | 4.67359 | 3428 ft | 224 kts | 182° |
| 2026-04-18 11:42 | 52.23106 | 4.68035 | 4259 ft | 236 kts | 155° |
| 2026-04-18 11:42 | 52.21750 | 4.69708 | 4828 ft | 263 kts | 133° |
| 2026-04-18 11:42 | 52.20948 | 4.72505 | 5479 ft | 282 kts | 105° |
| 2026-04-18 11:42 | 52.20593 | 4.75686 | 6324 ft | 288 kts | 102° |